Main page
METAR-TAF:

METAR-TAF

Airports :

Nouakchott–Oumtounsy International Airport

Nouakchott, Mauritania

latitude: 18-18-36N, longitude: 015-58-11W, elevation: 3 m

Current weather observation

The report was made 21 minutes ago, at 00:00 UTC
Wind 8 kt from the West/Northwest
Temperature 23°C
Humidity 83%
Pressure 1012 hPa
Visibility: 8000 m

METAR: GQNO 170000Z 29008KT 8000 NSC 23/20 Q1012 NOSIG

Time: 00:21 (00:21 UTC)

Forecast

The report was made 1 hour and 21 minutes ago, at 23:00 UTC
Forecast valid from 17 at 00 UTC to 18 at 06 UTC
Wind 12 kt from the West/Northwest
Visibility: 8000 m

TAF: GQNO 162300Z 1700/1806 29012KT 8000 NSC

Weather observations and forecasts of more than 4000 airports (METAR and TAF reports).

The available stations are represented by yellow and red dots on the map.

Hover mouse over dot to see the name of the station.

Then click to see weather observations and forecasts.

To change the map : click on the green buttons with a black cross to zoom in, on the green button with a dash to zoom out, or on the green arrows for adjacent maps.


METAR-TAF: